createdAt,value
2019-01-29T00:01:22.693Z,90.40
2019-01-29T00:03:51.425Z,90.10
2019-01-29T00:08:48.696Z,90.00
2019-01-29T00:11:17.476Z,90.40
2019-01-29T00:16:14.962Z,90.30
2019-01-29T00:18:43.902Z,90.60
2019-01-29T00:21:14.005Z,90.90
2019-01-29T00:23:42.872Z,91.00
2019-01-29T00:28:40.237Z,91.10
2019-01-29T00:31:09.077Z,91.10
2019-01-29T00:33:38.025Z,90.80
2019-01-29T00:36:06.724Z,90.70
2019-01-29T00:38:35.460Z,90.50
2019-01-29T00:41:04.298Z,90.40
2019-01-29T00:43:33.595Z,90.80
2019-01-29T00:46:02.412Z,90.30
2019-01-29T00:50:59.687Z,90.40
2019-01-29T00:53:28.599Z,90.40
2019-01-29T00:55:57.590Z,90.90
2019-01-29T00:58:26.326Z,91.00
2019-01-29T01:00:55.307Z,91.30
2019-01-29T01:03:24.146Z,91.40
2019-01-29T01:05:53.174Z,91.60
2019-01-29T01:08:22.299Z,91.70
2019-01-29T01:13:20.563Z,92.10
2019-01-29T01:15:49.494Z,92.10
2019-01-29T01:18:18.685Z,92.60
2019-01-29T01:20:47.716Z,93.00
2019-01-29T01:23:16.693Z,92.80
2019-01-29T01:25:45.335Z,92.40
2019-01-29T01:28:14.469Z,92.10
2019-01-29T01:30:43.218Z,93.30
2019-01-29T01:35:41.497Z,91.60
2019-01-29T01:38:10.387Z,91.30
2019-01-29T01:40:39.308Z,91.30
2019-01-29T01:43:08.264Z,91.40
2019-01-29T01:45:37.237Z,91.10
2019-01-29T01:48:06.285Z,90.70
2019-01-29T01:50:35.211Z,90.50
2019-01-29T01:53:04.138Z,90.20
2019-01-29T01:58:01.723Z,89.80
2019-01-29T02:00:30.548Z,89.40
2019-01-29T02:02:59.419Z,90.00
2019-01-29T02:05:28.323Z,89.60
2019-01-29T02:07:57.602Z,89.30
2019-01-29T02:10:28.838Z,89.10
2019-01-29T02:12:57.677Z,88.80
2019-01-29T02:17:55.203Z,88.50
2019-01-29T02:20:26.161Z,88.00
2019-01-29T02:22:55.002Z,88.10
2019-01-29T02:25:23.817Z,88.00
2019-01-29T02:27:52.728Z,87.50
2019-01-29T02:40:19.096Z,87.20
2019-01-29T02:42:47.996Z,87.20
2019-01-29T02:45:17.089Z,87.10
2019-01-29T02:47:46.111Z,87.80
2019-01-29T02:52:43.788Z,86.80
2019-01-29T02:55:13.159Z,87.10
2019-01-29T02:57:42.195Z,87.30
2019-01-29T03:02:42.090Z,88.00
2019-01-29T03:05:11.299Z,88.70
2019-01-29T03:07:40.172Z,87.00
2019-01-29T03:10:11.744Z,87.70
2019-01-29T03:12:40.598Z,86.20
2019-01-29T03:15:12.634Z,86.40
2019-01-29T03:17:41.671Z,86.20
2019-01-29T03:20:10.976Z,86.30
2019-01-29T03:25:10.504Z,86.60
2019-01-29T03:27:39.191Z,86.90
2019-01-29T03:30:10.041Z,87.70
2019-01-29T03:32:38.995Z,88.00
2019-01-29T03:35:08.009Z,88.30
2019-01-29T03:37:36.717Z,89.10
2019-01-29T03:40:06.906Z,89.10
2019-01-29T03:42:36.263Z,88.80
2019-01-29T03:47:36.051Z,88.90
2019-01-29T03:50:05.990Z,89.20
2019-01-29T03:52:35.051Z,88.80
2019-01-29T03:55:03.917Z,88.70
2019-01-29T03:57:32.791Z,89.40
2019-01-29T04:00:02.790Z,89.70
2019-01-29T04:02:31.716Z,90.00
2019-01-29T04:05:00.608Z,89.50
2019-01-29T04:09:58.901Z,89.20
2019-01-29T04:12:28.765Z,88.90
2019-01-29T04:14:57.585Z,88.60
2019-01-29T04:17:26.428Z,88.50
2019-01-29T04:19:55.454Z,89.20
2019-01-29T04:22:25.286Z,89.60
2019-01-29T04:24:54.056Z,89.60
2019-01-29T04:27:22.969Z,89.50
2019-01-29T04:32:20.387Z,89.70
2019-01-29T04:34:49.366Z,88.80
2019-01-29T04:37:18.178Z,88.80
2019-01-29T04:39:47.264Z,89.30
2019-01-29T04:42:16.187Z,89.10
2019-01-29T04:44:44.943Z,88.60
2019-01-29T04:47:17.086Z,88.40
2019-01-29T04:49:46.320Z,88.40
2019-01-29T04:54:43.963Z,87.50
2019-01-29T04:57:13.001Z,87.40
2019-01-29T04:59:42.038Z,86.90
2019-01-29T05:02:11.058Z,86.20
2019-01-29T05:04:40.012Z,86.90
2019-01-29T05:07:09.117Z,86.20
2019-01-29T05:09:38.066Z,86.60
2019-01-29T05:12:07.365Z,86.30
2019-01-29T05:17:06.479Z,84.60
2019-01-29T05:19:35.696Z,85.40
2019-01-29T05:22:09.807Z,83.80
2019-01-29T05:24:38.718Z,83.30
2019-01-29T05:27:10.704Z,85.00
2019-01-29T05:29:39.973Z,84.10
2019-01-29T05:32:09.174Z,83.90
2019-01-29T05:34:38.487Z,83.40
2019-01-29T05:39:36.554Z,83.60
2019-01-29T05:42:05.565Z,83.00
2019-01-29T05:44:34.887Z,82.00
2019-01-29T05:47:03.785Z,81.80
2019-01-29T05:49:32.585Z,82.60
2019-01-29T05:52:01.673Z,82.40
2019-01-29T05:54:31.687Z,82.60
2019-01-29T05:57:00.740Z,82.50
2019-01-29T06:01:59.200Z,81.80
2019-01-29T06:04:28.087Z,82.00
2019-01-29T06:06:56.949Z,82.30
2019-01-29T06:09:25.870Z,81.60
2019-01-29T06:11:54.671Z,81.90
2019-01-29T06:14:23.470Z,81.90
2019-01-29T06:16:52.422Z,82.10
2019-01-29T06:19:21.164Z,82.30
2019-01-29T06:24:25.614Z,82.60
2019-01-29T06:26:49.130Z,82.80
2019-01-29T06:29:17.948Z,82.20
2019-01-29T06:31:47.048Z,82.10
2019-01-29T06:34:16.069Z,82.30
2019-01-29T06:36:45.460Z,82.00
2019-01-29T06:39:14.422Z,83.00
2019-01-29T06:41:43.384Z,82.90
2019-01-29T06:46:41.376Z,82.50
2019-01-29T06:49:10.588Z,81.70
2019-01-29T06:51:39.671Z,82.40
2019-01-29T06:54:08.621Z,81.90
2019-01-29T06:56:37.745Z,82.50
2019-01-29T06:59:06.644Z,82.50
2019-01-29T07:01:35.722Z,83.30
2019-01-29T07:04:04.519Z,81.90
2019-01-29T07:09:01.959Z,81.90
2019-01-29T07:11:30.841Z,81.80
2019-01-29T07:13:59.637Z,82.30
2019-01-29T07:16:50.669Z,82.40
2019-01-29T07:19:40.694Z,83.00
2019-01-29T07:22:09.555Z,82.80
2019-01-29T07:24:42.887Z,82.20
2019-01-29T07:27:08.887Z,81.40
2019-01-29T07:32:06.650Z,81.20
2019-01-29T07:34:35.924Z,86.10
2019-01-29T07:37:04.721Z,82.80
2019-01-29T07:39:33.498Z,79.20
2019-01-29T07:42:02.728Z,78.80
2019-01-29T07:44:31.789Z,77.30
2019-01-29T07:47:00.752Z,77.90
2019-01-29T07:54:33.391Z,80.10
2019-01-29T07:56:59.731Z,80.90
2019-01-29T07:59:33.071Z,80.60
2019-01-29T08:01:59.892Z,81.10
2019-01-29T08:04:28.663Z,81.20
2019-01-29T08:06:57.561Z,80.80
2019-01-29T08:09:26.647Z,79.60
2019-01-29T08:14:24.160Z,78.30
2019-01-29T08:16:53.160Z,78.80
2019-01-29T08:19:22.134Z,80.20
2019-01-29T08:21:51.000Z,79.40
2019-01-29T08:24:20.108Z,78.90
2019-01-29T08:26:49.085Z,79.70
2019-01-29T08:29:18.063Z,80.20
2019-01-29T08:31:47.041Z,80.10
2019-01-29T08:34:16.055Z,79.50
2019-01-29T08:39:14.522Z,79.20
2019-01-29T08:41:43.555Z,78.90
2019-01-29T08:44:12.502Z,78.20
2019-01-29T08:46:41.364Z,78.20
2019-01-29T08:49:10.435Z,78.00
2019-01-29T08:51:39.264Z,78.70
2019-01-29T08:54:08.073Z,78.00
2019-01-29T08:56:37.073Z,76.80
2019-01-29T09:01:34.322Z,76.80
2019-01-29T09:04:03.247Z,76.20
2019-01-29T09:06:32.906Z,77.10
2019-01-29T09:09:02.110Z,78.50
2019-01-29T09:11:31.106Z,78.90
2019-01-29T09:14:00.428Z,78.80
2019-01-29T09:16:29.810Z,76.10
2019-01-29T09:18:58.710Z,76.80
2019-01-29T09:23:55.983Z,76.30
2019-01-29T09:26:24.881Z,75.50
2019-01-29T09:28:53.924Z,76.10
2019-01-29T09:31:23.055Z,74.00
2019-01-29T09:33:51.963Z,74.50
2019-01-29T09:36:20.761Z,75.20
2019-01-29T09:38:49.616Z,73.80
2019-01-29T09:43:47.116Z,73.40
2019-01-29T09:46:16.049Z,73.60
2019-01-29T09:48:44.852Z,73.10
2019-01-29T09:51:13.825Z,72.40
2019-01-29T09:53:42.614Z,70.80
2019-01-29T09:56:11.646Z,69.70
2019-01-29T09:58:40.682Z,70.30
2019-01-29T10:01:09.548Z,68.70
2019-01-29T10:06:06.997Z,69.20
2019-01-29T10:08:35.960Z,69.90
2019-01-29T10:11:04.937Z,71.10
2019-01-29T10:13:33.716Z,69.70
2019-01-29T10:16:02.834Z,70.30
2019-01-29T10:18:31.662Z,68.80
2019-01-29T10:21:00.479Z,67.60
2019-01-29T10:23:29.373Z,68.40
2019-01-29T10:28:26.706Z,65.80
2019-01-29T10:30:55.793Z,66.60
2019-01-29T10:33:24.810Z,66.60
2019-01-29T10:35:53.787Z,64.20
2019-01-29T10:38:22.617Z,65.00
2019-01-29T10:40:51.629Z,63.70
2019-01-29T10:43:20.615Z,64.40
2019-01-29T10:48:17.954Z,62.20
2019-01-29T10:50:46.992Z,62.60
2019-01-29T10:53:15.858Z,62.20
2019-01-29T10:55:47.338Z,60.80
2019-01-29T10:58:34.707Z,61.70
2019-01-29T11:01:03.995Z,61.30
2019-01-29T11:03:33.053Z,61.30
2019-01-29T11:06:01.941Z,62.00
2019-01-29T11:10:59.479Z,60.20
2019-01-29T11:13:28.458Z,59.60
2019-01-29T11:15:57.529Z,58.00
2019-01-29T11:18:26.676Z,58.50
2019-01-29T11:20:55.495Z,56.70
2019-01-29T11:23:24.565Z,55.00
2019-01-29T11:25:56.024Z,56.00
2019-01-29T11:28:23.874Z,54.10
2019-01-29T11:33:22.163Z,53.90
2019-01-29T11:35:50.974Z,54.30
2019-01-29T11:38:19.741Z,53.50
2019-01-29T11:40:48.648Z,53.60
2019-01-29T11:43:17.499Z,54.20
2019-01-29T11:45:51.681Z,55.10
2019-01-29T11:48:20.484Z,56.40
2019-01-29T11:55:46.219Z,56.50
2019-01-29T11:58:15.157Z,55.60
2019-01-29T12:00:51.701Z,56.40
2019-01-29T12:03:20.539Z,53.60
2019-01-29T12:05:49.684Z,54.00
2019-01-29T12:08:18.456Z,53.30
2019-01-29T12:10:51.654Z,55.80
2019-01-29T12:13:20.517Z,55.20
2019-01-29T12:18:17.699Z,54.30
2019-01-29T12:20:46.537Z,53.70
2019-01-29T12:23:15.481Z,53.50
2019-01-29T12:25:44.490Z,55.40
2019-01-29T12:28:13.295Z,52.10
2019-01-29T12:30:43.120Z,52.70
2019-01-29T12:33:12.169Z,52.00
2019-01-29T12:35:41.302Z,52.40
2019-01-29T12:40:38.703Z,51.50
2019-01-29T12:43:07.518Z,51.70
2019-01-29T12:45:36.569Z,51.10
2019-01-29T12:48:05.329Z,51.50
2019-01-29T12:50:34.258Z,51.10
2019-01-29T12:53:08.297Z,51.80
2019-01-29T12:58:06.112Z,51.70
2019-01-29T13:00:38.590Z,51.50
2019-01-29T13:03:08.132Z,52.10
2019-01-29T13:05:37.126Z,52.50
2019-01-29T13:08:06.000Z,51.10
2019-01-29T13:10:34.976Z,49.80
2019-01-29T13:13:04.298Z,50.10
2019-01-29T13:15:33.452Z,48.40
2019-01-29T13:20:31.271Z,49.70
2019-01-29T13:23:00.735Z,49.10
2019-01-29T13:25:29.851Z,49.60
2019-01-29T13:27:59.125Z,49.70
2019-01-29T13:30:33.229Z,49.70
2019-01-29T13:33:02.272Z,50.20
2019-01-29T13:35:33.262Z,49.70
2019-01-29T13:38:02.255Z,49.60
2019-01-29T13:42:59.484Z,50.10
2019-01-29T13:45:28.246Z,50.30
2019-01-29T13:47:57.217Z,49.00
2019-01-29T13:50:32.636Z,48.60
2019-01-29T13:53:01.727Z,49.10
2019-01-29T13:55:30.786Z,48.60
2019-01-29T13:57:59.593Z,49.10
2019-01-29T14:00:47.658Z,49.40
2019-01-29T14:03:18.611Z,48.80
2019-01-29T14:08:16.219Z,49.40
2019-01-29T14:10:46.141Z,49.50
2019-01-29T14:13:15.378Z,50.00
2019-01-29T14:15:50.257Z,50.30
2019-01-29T14:18:20.725Z,50.40
2019-01-29T14:20:49.642Z,49.90
2019-01-29T14:23:18.572Z,50.20
2019-01-29T14:25:47.355Z,50.30
2019-01-29T14:28:16.232Z,50.40
2019-01-29T14:33:13.861Z,50.10
2019-01-29T14:35:42.873Z,49.70
2019-01-29T14:38:50.395Z,50.30
2019-01-29T14:41:20.934Z,50.50
2019-01-29T14:43:57.786Z,49.80
2019-01-29T14:46:26.783Z,50.30
2019-01-29T14:48:55.627Z,50.70
2019-01-29T14:51:24.419Z,50.60
2019-01-29T14:53:53.215Z,51.10
2019-01-29T14:56:22.195Z,50.50
2019-01-29T15:01:19.489Z,50.40
2019-01-29T15:03:48.374Z,50.90
2019-01-29T15:06:17.195Z,49.80
2019-01-29T15:08:46.126Z,50.40
2019-01-29T15:11:14.940Z,50.20
2019-01-29T15:13:43.839Z,50.90
2019-01-29T15:16:23.446Z,50.70
2019-01-29T15:18:56.652Z,49.80
2019-01-29T15:23:53.803Z,50.60
2019-01-29T15:26:22.710Z,51.20
2019-01-29T15:28:51.635Z,50.70
2019-01-29T15:31:20.616Z,50.60
2019-01-29T15:33:49.573Z,51.10
2019-01-29T15:36:18.363Z,50.80
2019-01-29T15:38:47.326Z,51.30
2019-01-29T15:41:16.211Z,70.30
2019-01-29T15:46:13.418Z,50.90
2019-01-29T15:48:42.254Z,51.30
2019-01-29T15:51:11.400Z,50.70
2019-01-29T15:53:40.396Z,51.00
2019-01-29T15:56:09.367Z,51.40
2019-01-29T15:58:38.317Z,51.90
2019-01-29T16:01:07.388Z,51.60
2019-01-29T16:06:04.530Z,51.50
2019-01-29T16:08:33.331Z,52.10
2019-01-29T16:11:02.262Z,52.00
2019-01-29T16:13:31.200Z,52.50
2019-01-29T16:16:00.051Z,51.90
2019-01-29T16:18:28.782Z,52.30
2019-01-29T16:20:57.722Z,52.40
2019-01-29T16:23:26.697Z,51.90
2019-01-29T16:28:24.238Z,53.10
2019-01-29T16:30:53.135Z,53.70
2019-01-29T16:33:22.114Z,54.10
2019-01-29T16:35:51.441Z,54.30
2019-01-29T16:38:20.471Z,54.40
2019-01-29T16:40:49.413Z,54.50
2019-01-29T16:43:18.478Z,55.00
2019-01-29T16:45:47.567Z,54.70
2019-01-29T16:50:46.210Z,54.50
2019-01-29T16:53:14.989Z,54.50
2019-01-29T16:55:43.775Z,54.30
2019-01-29T16:58:13.012Z,54.80
2019-01-29T17:00:42.663Z,55.00
2019-01-29T17:03:11.852Z,55.30
2019-01-29T17:05:40.949Z,55.60
2019-01-29T17:10:38.604Z,55.40
2019-01-29T17:13:07.627Z,56.00
2019-01-29T17:15:36.579Z,56.20
2019-01-29T17:18:06.066Z,56.50
2019-01-29T17:20:36.876Z,56.60
2019-01-29T17:23:06.431Z,56.70
2019-01-29T17:25:35.457Z,57.10
2019-01-29T17:28:04.658Z,56.60
2019-01-29T17:33:03.754Z,67.60
2019-01-29T17:35:33.072Z,58.30
2019-01-29T17:38:02.238Z,58.60
2019-01-29T17:40:31.322Z,56.40
2019-01-29T17:43:00.354Z,56.70
2019-01-29T17:45:31.997Z,57.40
2019-01-29T17:48:01.438Z,57.70
2019-01-29T17:50:32.327Z,58.30
2019-01-29T17:55:31.021Z,59.10
2019-01-29T17:58:00.220Z,59.60
2019-01-29T18:00:31.610Z,59.90
2019-01-29T18:03:00.469Z,60.60
2019-01-29T18:05:29.473Z,60.60
2019-01-29T18:07:58.311Z,61.30
2019-01-29T18:10:28.318Z,61.40
2019-01-29T18:12:57.379Z,61.50
2019-01-29T18:17:55.635Z,61.20
2019-01-29T18:20:24.778Z,61.70
2019-01-29T18:22:53.673Z,62.10
2019-01-29T18:25:22.544Z,62.80
2019-01-29T18:28:00.920Z,62.40
2019-01-29T18:30:25.671Z,63.20
2019-01-29T18:32:54.553Z,63.00
2019-01-29T18:35:23.485Z,62.90
2019-01-29T18:40:28.178Z,62.70
2019-01-29T18:43:00.190Z,62.60
2019-01-29T18:45:29.101Z,63.00
2019-01-29T18:47:58.100Z,63.00
2019-01-29T18:50:27.085Z,63.50
2019-01-29T18:52:56.239Z,64.00
2019-01-29T18:55:25.207Z,64.10
2019-01-29T19:02:52.700Z,64.50
2019-01-29T19:05:23.022Z,65.30
2019-01-29T19:07:51.847Z,65.50
2019-01-29T19:10:22.395Z,65.10
2019-01-29T19:12:51.481Z,64.90
2019-01-29T19:15:25.246Z,65.70
2019-01-29T19:17:55.680Z,65.80
2019-01-29T19:20:25.112Z,65.70
2019-01-29T19:25:22.448Z,66.40
2019-01-29T19:27:51.295Z,66.80
2019-01-29T19:30:30.640Z,67.60
2019-01-29T19:32:59.795Z,66.80
2019-01-29T19:35:28.906Z,67.60
2019-01-29T19:37:57.813Z,67.40
2019-01-29T19:42:55.377Z,67.40
2019-01-29T19:45:26.548Z,72.60
2019-01-29T19:50:25.597Z,68.50
2019-01-29T19:52:54.445Z,68.80
2019-01-29T19:55:24.809Z,69.60
2019-01-29T19:57:53.726Z,68.40
2019-01-29T20:00:25.076Z,69.20
2019-01-29T20:02:54.072Z,69.40
2019-01-29T20:05:23.146Z,69.80
2019-01-29T20:07:52.090Z,69.20
2019-01-29T20:12:49.866Z,68.70
2019-01-29T20:15:19.487Z,69.60
2019-01-29T20:17:49.977Z,68.90
2019-01-29T20:20:21.710Z,69.70
2019-01-29T20:22:50.624Z,69.30
2019-01-29T20:25:19.868Z,69.40
2019-01-29T20:27:48.742Z,69.10
2019-01-29T20:30:23.327Z,76.40
2019-01-29T20:35:23.401Z,69.50
2019-01-29T20:37:52.439Z,69.50
2019-01-29T20:40:22.462Z,69.70
2019-01-29T20:42:51.347Z,70.50
2019-01-29T20:45:22.506Z,70.30
2019-01-29T20:47:52.733Z,71.90
2019-01-29T20:50:27.258Z,70.40
2019-01-29T20:52:56.249Z,71.10
2019-01-29T20:57:53.892Z,69.50
2019-01-29T21:00:26.853Z,68.50
2019-01-29T21:02:55.971Z,71.10
2019-01-29T21:05:25.330Z,69.00
2019-01-29T21:07:54.582Z,69.80
2019-01-29T21:10:24.261Z,69.10
2019-01-29T21:12:58.152Z,69.00
2019-01-29T21:15:37.673Z,71.60
2019-01-29T21:20:29.418Z,70.30
2019-01-29T21:22:58.587Z,70.20
2019-01-29T21:25:27.573Z,70.40
2019-01-29T21:27:56.775Z,70.50
2019-01-29T21:30:30.724Z,70.00
2019-01-29T21:32:59.726Z,70.60
2019-01-29T21:35:32.904Z,71.10
2019-01-29T21:38:02.746Z,71.30
2019-01-29T21:40:43.285Z,71.60
2019-01-29T21:45:40.961Z,71.50
2019-01-29T21:48:10.114Z,71.20
2019-01-29T21:50:42.442Z,71.30
2019-01-29T21:53:26.549Z,71.70
2019-01-29T21:55:56.013Z,71.80
2019-01-29T22:00:57.561Z,71.00
2019-01-29T22:03:29.081Z,68.90
2019-01-29T22:05:57.771Z,68.50
2019-01-29T22:08:26.653Z,69.90
2019-01-29T22:10:55.790Z,70.30
2019-01-29T22:13:24.670Z,71.40
2019-01-29T22:15:53.568Z,71.50
2019-01-29T22:18:23.124Z,70.60
2019-01-29T22:20:52.077Z,71.30
2019-01-29T22:23:20.956Z,71.40
2019-01-29T22:25:49.995Z,71.40
2019-01-29T22:28:18.989Z,71.40
2019-01-29T22:30:47.684Z,72.00
2019-01-29T22:33:16.668Z,71.90
2019-01-29T22:35:45.449Z,72.10
2019-01-29T22:38:14.340Z,71.90
2019-01-29T22:43:11.552Z,71.40
2019-01-29T22:45:40.300Z,72.00
2019-01-29T22:48:09.821Z,72.10
2019-01-29T22:50:40.468Z,70.90
2019-01-29T22:53:09.243Z,71.80
2019-01-29T22:55:38.170Z,74.40
2019-01-29T22:58:06.940Z,77.30
2019-01-29T23:01:01.696Z,77.20
2019-01-29T23:03:33.503Z,77.70
2019-01-29T23:06:17.215Z,74.30
2019-01-29T23:08:46.115Z,74.10
2019-01-29T23:11:15.074Z,74.10
2019-01-29T23:13:44.177Z,72.10
2019-01-29T23:16:12.945Z,74.90
2019-01-29T23:21:10.141Z,74.00
2019-01-29T23:23:39.020Z,74.30
2019-01-29T23:26:08.282Z,72.30
2019-01-29T23:28:36.957Z,72.30
2019-01-29T23:31:05.678Z,71.30
2019-01-29T23:33:34.482Z,71.90
2019-01-29T23:36:03.384Z,70.60
2019-01-29T23:41:00.425Z,70.00
2019-01-29T23:43:35.997Z,70.80
2019-01-29T23:46:04.906Z,69.70
2019-01-29T23:48:33.807Z,70.50
2019-01-29T23:51:02.514Z,70.50
2019-01-29T23:53:31.552Z,69.40
2019-01-29T23:56:00.537Z,70.20
2019-01-29T23:58:29.799Z,69.00
